Aérodrome :
LOGIN :

S'inscrire | Disclaimer

   EN    FR    IT 

 










Légende :    VFR   VFR Marginal   IFR   IFR Intensif   IFR Très Intensif
Visi : 
Plafond : 
>= 8 km
>= 3000ft
5 à 8 km
1000 à 3000 ft
1500m à 5 km
500 à 1000 ft
800 à 1500m
200 à 500 ft
< 800m
< 200 ft
Symboles :   Orages  Brouillard  Fortes neiges  Fortes précipitations  Vent > 20 kt
SIGMETs :   Divers  Orages  Givrage  Turbulence  Onde Orograph.  Cendres Volcan.






- Altitude de l'aérodrome : 1115 ft
- Code IATA : GRZ


LOWG - Graz

DERNIER METAR :
  • 110220Z AUTO VRB01KT 9999 NSC M06/M07 Q1023

METARs EXPIRÉS :
  • 110150Z AUTO VRB01KT 9999 NSC M06/M07 Q1023
  • 110120Z AUTO VRB02KT 9999 NSC M05/M07 Q1023
  • 110050Z AUTO 00000KT 9999 NSC M06/M07 Q1023
  • 110020Z AUTO VRB01KT 9999 NSC M05/M06 Q1023
  • 102350Z AUTO VRB01KT 9999 NSC M06/M08 Q1024
  • 102320Z AUTO VRB01KT 9999 NSC M04/M06 Q1024

TAF TAF LOWG
Valide du 11 à 00h jusqu'au 12 à 00h UTC


102315Z 1100/1124 VRB02KT 9999 FEW040 TX02/1112Z TNM07/1104Z
PROB30
TEMPO 1102/1107 0300 FZBCFG FEW001
TEMPO 1121/1124 0500 FZBCFG NSC



MET'MAP, la Météo Aéronautique d'un coup d'oeil ! - Copyright ORBIFLY Décembre 2007 - Disclaimer

ORBIFLY MET'MAP TEAM :

Programmation & Développement : Alexandra Zaïnal
Sur une idée originale de : Baudouin d'Aumeries
Assistance à la programmation : Marc-Olivier Méhu
Soutien technique & logistique : Manuel Goepfert

Contact : metmap@orbifly.com




SOURCES & CREDITS :

   NOAA